sensor_id;sensor_type;location;lat;lon;timestamp;pressure;altitude;pressure_sealevel;temperature;humidity
77366;BME280;66430;50.182;11.704;2024-02-23T00:00:37;92230.31;;;11.36;40.55
77366;BME280;66430;50.182;11.704;2024-02-23T00:03:02;92237.38;;;10.95;40.55
77366;BME280;66430;50.182;11.704;2024-02-23T00:05:28;92242.95;;;11.38;40.15
77366;BME280;66430;50.182;11.704;2024-02-23T00:07:53;92258.10;;;11.07;40.29
77366;BME280;66430;50.182;11.704;2024-02-23T00:10:18;92264.46;;;10.36;41.18
77366;BME280;66430;50.182;11.704;2024-02-23T00:12:44;92258.26;;;11.25;40.26
77366;BME280;66430;50.182;11.704;2024-02-23T00:15:10;92264.72;;;11.06;40.63
77366;BME280;66430;50.182;11.704;2024-02-23T00:17:35;92263.76;;;10.98;40.19
77366;BME280;66430;50.182;11.704;2024-02-23T00:20:00;92269.76;;;10.87;40.26
77366;BME280;66430;50.182;11.704;2024-02-23T00:22:26;92277.73;;;10.84;40.27
77366;BME280;66430;50.182;11.704;2024-02-23T00:24:51;92292.09;;;10.86;40.24
77366;BME280;66430;50.182;11.704;2024-02-23T00:27:16;92296.84;;;10.71;40.69
77366;BME280;66430;50.182;11.704;2024-02-23T00:29:42;92301.12;;;10.54;40.45
77366;BME280;66430;50.182;11.704;2024-02-23T00:32:07;92310.06;;;10.91;40.35
77366;BME280;66430;50.182;11.704;2024-02-23T00:34:33;92324.84;;;10.40;40.50
77366;BME280;66430;50.182;11.704;2024-02-23T00:37:04;92330.56;;;10.93;39.67
77366;BME280;66430;50.182;11.704;2024-02-23T00:39:24;92341.21;;;10.87;39.91
77366;BME280;66430;50.182;11.704;2024-02-23T00:41:49;92353.84;;;11.02;39.96
77366;BME280;66430;50.182;11.704;2024-02-23T00:44:15;92359.29;;;10.77;39.93
77366;BME280;66430;50.182;11.704;2024-02-23T00:46:45;92366.07;;;10.53;40.12
77366;BME280;66430;50.182;11.704;2024-02-23T00:49:06;92383.03;;;10.92;39.55
77366;BME280;66430;50.182;11.704;2024-02-23T00:51:31;92368.75;;;10.98;40.00
77366;BME280;66430;50.182;11.704;2024-02-23T00:53:56;92365.59;;;10.80;39.96
77366;BME280;66430;50.182;11.704;2024-02-23T00:56:22;92344.55;;;10.51;40.19
77366;BME280;66430;50.182;11.704;2024-02-23T00:58:47;92353.76;;;10.43;40.03
77366;BME280;66430;50.182;11.704;2024-02-23T01:01:13;92349.20;;;10.30;39.84
77366;BME280;66430;50.182;11.704;2024-02-23T01:03:40;92374.43;;;10.21;39.58
77366;BME280;66430;50.182;11.704;2024-02-23T01:06:04;92377.39;;;10.40;39.48
77366;BME280;66430;50.182;11.704;2024-02-23T01:08:29;92394.33;;;10.42;39.44
77366;BME280;66430;50.182;11.704;2024-02-23T01:10:55;92392.40;;;9.95;39.83
77366;BME280;66430;50.182;11.704;2024-02-23T01:13:20;92403.59;;;9.82;39.89
77366;BME280;66430;50.182;11.704;2024-02-23T01:15:46;92406.99;;;10.26;39.20
77366;BME280;66430;50.182;11.704;2024-02-23T01:18:11;92411.42;;;10.74;38.69
77366;BME280;66430;50.182;11.704;2024-02-23T01:20:37;92405.28;;;10.23;39.13
77366;BME280;66430;50.182;11.704;2024-02-23T01:23:02;92404.60;;;10.05;38.70
77366;BME280;66430;50.182;11.704;2024-02-23T01:25:28;92406.41;;;9.95;38.48
77366;BME280;66430;50.182;11.704;2024-02-23T01:27:53;92414.83;;;10.12;38.15
77366;BME280;66430;50.182;11.704;2024-02-23T01:30:19;92424.22;;;10.03;38.85
77366;BME280;66430;50.182;11.704;2024-02-23T01:32:44;92428.38;;;9.74;38.51
77366;BME280;66430;50.182;11.704;2024-02-23T01:35:09;92429.64;;;9.85;38.38
77366;BME280;66430;50.182;11.704;2024-02-23T01:37:35;92427.24;;;9.76;38.50
77366;BME280;66430;50.182;11.704;2024-02-23T01:40:00;92433.79;;;10.11;38.15
77366;BME280;66430;50.182;11.704;2024-02-23T01:42:26;92425.00;;;9.84;37.66
77366;BME280;66430;50.182;11.704;2024-02-23T01:44:51;92435.74;;;9.33;38.47
77366;BME280;66430;50.182;11.704;2024-02-23T01:47:17;92438.39;;;9.34;38.22
77366;BME280;66430;50.182;11.704;2024-02-23T01:49:42;92439.11;;;9.18;38.15
77366;BME280;66430;50.182;11.704;2024-02-23T01:52:11;92455.32;;;9.30;37.58
77366;BME280;66430;50.182;11.704;2024-02-23T01:54:34;92444.72;;;9.15;37.77
77366;BME280;66430;50.182;11.704;2024-02-23T01:57:00;92441.88;;;9.55;37.18
77366;BME280;66430;50.182;11.704;2024-02-23T01:59:25;92441.44;;;9.28;37.61
77366;BME280;66430;50.182;11.704;2024-02-23T02:01:50;92448.29;;;9.54;37.13
77366;BME280;66430;50.182;11.704;2024-02-23T02:04:15;92454.49;;;9.36;37.37
77366;BME280;66430;50.182;11.704;2024-02-23T02:06:41;92439.59;;;9.39;37.68
77366;BME280;66430;50.182;11.704;2024-02-23T02:09:06;92442.24;;;9.06;37.99
77366;BME280;66430;50.182;11.704;2024-02-23T02:11:32;92443.13;;;9.48;37.98
77366;BME280;66430;50.182;11.704;2024-02-23T02:13:57;92450.48;;;9.66;37.73
77366;BME280;66430;50.182;11.704;2024-02-23T02:16:23;92459.49;;;9.50;37.88
77366;BME280;66430;50.182;11.704;2024-02-23T02:18:48;92462.52;;;9.38;38.19
77366;BME280;66430;50.182;11.704;2024-02-23T02:21:14;92469.97;;;9.53;38.00
77366;BME280;66430;50.182;11.704;2024-02-23T02:23:40;92464.26;;;9.55;37.75
77366;BME280;66430;50.182;11.704;2024-02-23T02:26:04;92460.86;;;9.87;37.51
77366;BME280;66430;50.182;11.704;2024-02-23T02:28:32;92466.83;;;9.49;37.44
77366;BME280;66430;50.182;11.704;2024-02-23T02:30:56;92467.65;;;9.35;37.33
77366;BME280;66430;50.182;11.704;2024-02-23T02:33:22;92467.77;;;9.01;37.42
77366;BME280;66430;50.182;11.704;2024-02-23T02:35:49;92473.81;;;9.58;37.16
77366;BME280;66430;50.182;11.704;2024-02-23T02:38:12;92476.64;;;9.67;36.56
77366;BME280;66430;50.182;11.704;2024-02-23T02:40:38;92476.36;;;8.76;36.70
77366;BME280;66430;50.182;11.704;2024-02-23T02:43:03;92486.93;;;8.60;36.69
77366;BME280;66430;50.182;11.704;2024-02-23T02:45:29;92492.58;;;8.59;36.31
77366;BME280;66430;50.182;11.704;2024-02-23T02:47:56;92508.99;;;8.28;36.00
77366;BME280;66430;50.182;11.704;2024-02-23T02:50:19;92515.63;;;8.06;36.19
77366;BME280;66430;50.182;11.704;2024-02-23T02:52:47;92511.32;;;8.38;35.55
77366;BME280;66430;50.182;11.704;2024-02-23T02:55:10;92529.39;;;7.85;35.98
77366;BME280;66430;50.182;11.704;2024-02-23T02:57:36;92534.92;;;8.23;36.23
77366;BME280;66430;50.182;11.704;2024-02-23T03:00:02;92536.05;;;9.05;35.58
77366;BME280;66430;50.182;11.704;2024-02-23T03:02:27;92543.52;;;8.59;35.66
77366;BME280;66430;50.182;11.704;2024-02-23T03:04:53;92539.46;;;8.72;35.78
77366;BME280;66430;50.182;11.704;2024-02-23T03:07:18;92549.36;;;8.62;35.89
77366;BME280;66430;50.182;11.704;2024-02-23T03:09:43;92562.89;;;8.67;35.52
77366;BME280;66430;50.182;11.704;2024-02-23T03:12:10;92569.94;;;8.78;35.50
77366;BME280;66430;50.182;11.704;2024-02-23T03:14:34;92577.56;;;8.63;36.14
77366;BME280;66430;50.182;11.704;2024-02-23T03:17:00;92579.44;;;8.41;36.00
77366;BME280;66430;50.182;11.704;2024-02-23T03:19:25;92586.07;;;9.05;35.97
77366;BME280;66430;50.182;11.704;2024-02-23T03:21:52;92585.59;;;8.80;35.57
77366;BME280;66430;50.182;11.704;2024-02-23T03:24:17;92591.39;;;8.93;35.60
77366;BME280;66430;50.182;11.704;2024-02-23T03:26:42;92585.09;;;8.53;35.89
77366;BME280;66430;50.182;11.704;2024-02-23T03:29:07;92586.10;;;9.01;35.63
77366;BME280;66430;50.182;11.704;2024-02-23T03:31:33;92591.77;;;8.62;35.69
77366;BME280;66430;50.182;11.704;2024-02-23T03:33:58;92593.64;;;8.15;36.40
77366;BME280;66430;50.182;11.704;2024-02-23T03:36:24;92597.40;;;8.42;36.24
77366;BME280;66430;50.182;11.704;2024-02-23T03:38:49;92585.46;;;8.77;36.02
77366;BME280;66430;50.182;11.704;2024-02-23T03:41:20;92587.82;;;8.84;35.70
77366;BME280;66430;50.182;11.704;2024-02-23T03:43:42;92593.25;;;8.82;35.76
77366;BME280;66430;50.182;11.704;2024-02-23T03:46:06;92596.58;;;8.78;36.16
77366;BME280;66430;50.182;11.704;2024-02-23T03:48:32;92592.50;;;8.42;36.05
77366;BME280;66430;50.182;11.704;2024-02-23T03:50:57;92599.08;;;8.47;36.43
77366;BME280;66430;50.182;11.704;2024-02-23T03:53:23;92601.80;;;8.70;36.31
77366;BME280;66430;50.182;11.704;2024-02-23T03:55:48;92605.15;;;7.96;36.46
77366;BME280;66430;50.182;11.704;2024-02-23T03:58:14;92600.15;;;8.38;36.44
77366;BME280;66430;50.182;11.704;2024-02-23T04:00:39;92617.97;;;8.65;35.88
77366;BME280;66430;50.182;11.704;2024-02-23T04:03:05;92621.17;;;8.39;36.02
77366;BME280;66430;50.182;11.704;2024-02-23T04:05:30;92631.21;;;8.73;36.22
77366;BME280;66430;50.182;11.704;2024-02-23T04:07:56;92635.26;;;8.83;36.00
77366;BME280;66430;50.182;11.704;2024-02-23T04:10:22;92646.49;;;7.90;36.63
77366;BME280;66430;50.182;11.704;2024-02-23T04:12:47;92651.87;;;8.33;36.44
77366;BME280;66430;50.182;11.704;2024-02-23T04:15:12;92662.98;;;8.47;36.16
77366;BME280;66430;50.182;11.704;2024-02-23T04:17:37;92668.93;;;8.68;36.00
77366;BME280;66430;50.182;11.704;2024-02-23T04:20:07;92654.25;;;8.08;36.26
77366;BME280;66430;50.182;11.704;2024-02-23T04:22:29;92652.66;;;8.46;35.71
77366;BME280;66430;50.182;11.704;2024-02-23T04:24:55;92647.89;;;8.48;35.65
77366;BME280;66430;50.182;11.704;2024-02-23T04:27:20;92661.38;;;8.47;35.79
77366;BME280;66430;50.182;11.704;2024-02-23T04:29:45;92658.49;;;8.61;35.93
77366;BME280;66430;50.182;11.704;2024-02-23T04:32:12;92657.81;;;8.83;35.89
77366;BME280;66430;50.182;11.704;2024-02-23T04:34:37;92648.00;;;8.44;35.88
77366;BME280;66430;50.182;11.704;2024-02-23T04:37:02;92643.67;;;8.51;35.86
77366;BME280;66430;50.182;11.704;2024-02-23T04:39:27;92641.16;;;8.33;36.08
77366;BME280;66430;50.182;11.704;2024-02-23T04:41:53;92639.82;;;8.73;36.17
77366;BME280;66430;50.182;11.704;2024-02-23T04:44:18;92643.27;;;8.46;36.94
77366;BME280;66430;50.182;11.704;2024-02-23T04:46:44;92649.84;;;8.29;36.44
77366;BME280;66430;50.182;11.704;2024-02-23T04:49:10;92654.92;;;8.56;36.24
77366;BME280;66430;50.182;11.704;2024-02-23T04:51:35;92659.40;;;8.01;36.18
77366;BME280;66430;50.182;11.704;2024-02-23T04:54:00;92653.30;;;8.15;35.84
77366;BME280;66430;50.182;11.704;2024-02-23T04:56:26;92670.09;;;8.34;35.84
77366;BME280;66430;50.182;11.704;2024-02-23T04:58:51;92677.80;;;8.59;35.31
77366;BME280;66430;50.182;11.704;2024-02-23T05:01:17;92679.63;;;8.34;35.47
77366;BME280;66430;50.182;11.704;2024-02-23T05:03:43;92683.72;;;7.98;35.71
77366;BME280;66430;50.182;11.704;2024-02-23T05:06:08;92686.70;;;8.33;35.54
77366;BME280;66430;50.182;11.704;2024-02-23T05:08:34;92689.19;;;8.62;35.44
77366;BME280;66430;50.182;11.704;2024-02-23T05:10:59;92691.19;;;8.16;35.79
77366;BME280;66430;50.182;11.704;2024-02-23T05:13:24;92686.03;;;8.27;35.62
77366;BME280;66430;50.182;11.704;2024-02-23T05:15:50;92691.56;;;8.33;35.69
77366;BME280;66430;50.182;11.704;2024-02-23T05:18:16;92682.80;;;8.31;35.45
77366;BME280;66430;50.182;11.704;2024-02-23T05:20:41;92693.30;;;7.86;35.43
77366;BME280;66430;50.182;11.704;2024-02-23T05:23:06;92699.79;;;8.40;35.43
77366;BME280;66430;50.182;11.704;2024-02-23T05:25:37;92703.74;;;8.14;35.51
77366;BME280;66430;50.182;11.704;2024-02-23T05:27:58;92705.32;;;8.13;35.55
77366;BME280;66430;50.182;11.704;2024-02-23T05:30:24;92713.90;;;8.34;35.26
77366;BME280;66430;50.182;11.704;2024-02-23T05:32:48;92718.16;;;7.98;35.59
77366;BME280;66430;50.182;11.704;2024-02-23T05:35:14;92711.91;;;8.20;35.32
77366;BME280;66430;50.182;11.704;2024-02-23T05:37:41;92710.45;;;8.09;35.77
77366;BME280;66430;50.182;11.704;2024-02-23T05:40:06;92707.60;;;7.80;35.97
77366;BME280;66430;50.182;11.704;2024-02-23T05:42:31;92712.43;;;8.00;36.00
77366;BME280;66430;50.182;11.704;2024-02-23T05:44:56;92697.97;;;8.23;35.92
77366;BME280;66430;50.182;11.704;2024-02-23T05:47:22;92702.18;;;7.92;36.41
77366;BME280;66430;50.182;11.704;2024-02-23T05:49:47;92717.81;;;8.15;36.15
77366;BME280;66430;50.182;11.704;2024-02-23T05:52:13;92722.20;;;7.95;36.65
77366;BME280;66430;50.182;11.704;2024-02-23T05:54:38;92717.43;;;8.12;36.50
77366;BME280;66430;50.182;11.704;2024-02-23T05:57:04;92712.76;;;7.90;36.62
77366;BME280;66430;50.182;11.704;2024-02-23T05:59:29;92720.63;;;8.74;36.21
77366;BME280;66430;50.182;11.704;2024-02-23T06:01:55;92711.79;;;8.29;36.18
77366;BME280;66430;50.182;11.704;2024-02-23T06:04:21;92707.65;;;7.61;37.16
77366;BME280;66430;50.182;11.704;2024-02-23T06:06:46;92696.18;;;7.75;36.57
77366;BME280;66430;50.182;11.704;2024-02-23T06:09:11;92710.36;;;7.43;36.39
77366;BME280;66430;50.182;11.704;2024-02-23T06:11:37;92705.85;;;7.30;37.08
77366;BME280;66430;50.182;11.704;2024-02-23T06:14:02;92703.22;;;7.36;36.88
77366;BME280;66430;50.182;11.704;2024-02-23T06:16:33;92714.84;;;7.55;36.90
77366;BME280;66430;50.182;11.704;2024-02-23T06:18:54;92709.22;;;7.86;36.56
77366;BME280;66430;50.182;11.704;2024-02-23T06:21:19;92690.93;;;7.92;36.69
77366;BME280;66430;50.182;11.704;2024-02-23T06:23:45;92681.17;;;7.65;37.08
77366;BME280;66430;50.182;11.704;2024-02-23T06:26:20;92687.65;;;7.62;36.52
77366;BME280;66430;50.182;11.704;2024-02-23T06:28:37;92717.19;;;7.81;36.76
77366;BME280;66430;50.182;11.704;2024-02-23T06:31:02;92732.27;;;7.00;37.24
77366;BME280;66430;50.182;11.704;2024-02-23T06:33:27;92725.96;;;7.46;36.84
77366;BME280;66430;50.182;11.704;2024-02-23T06:35:53;92725.51;;;7.12;36.65
77366;BME280;66430;50.182;11.704;2024-02-23T06:38:18;92725.33;;;7.52;36.24
77366;BME280;66430;50.182;11.704;2024-02-23T06:40:43;92732.30;;;7.11;36.55
77366;BME280;66430;50.182;11.704;2024-02-23T06:43:09;92730.91;;;6.95;36.50
77366;BME280;66430;50.182;11.704;2024-02-23T06:45:34;92736.79;;;7.34;35.42
77366;BME280;66430;50.182;11.704;2024-02-23T06:48:00;92741.59;;;7.19;35.87
77366;BME280;66430;50.182;11.704;2024-02-23T06:50:30;92752.64;;;6.81;35.88
77366;BME280;66430;50.182;11.704;2024-02-23T06:52:51;92764.84;;;7.23;35.63
77366;BME280;66430;50.182;11.704;2024-02-23T06:55:16;92764.96;;;6.71;35.72
77366;BME280;66430;50.182;11.704;2024-02-23T06:57:42;92766.11;;;7.40;35.51
77366;BME280;66430;50.182;11.704;2024-02-23T07:00:09;92771.21;;;6.99;35.68
77366;BME280;66430;50.182;11.704;2024-02-23T07:02:33;92777.87;;;7.14;35.55
77366;BME280;66430;50.182;11.704;2024-02-23T07:04:59;92789.61;;;6.69;35.30
77366;BME280;66430;50.182;11.704;2024-02-23T07:07:25;92783.36;;;7.29;35.15
77366;BME280;66430;50.182;11.704;2024-02-23T07:09:50;92780.98;;;7.40;34.89
77366;BME280;66430;50.182;11.704;2024-02-23T07:12:16;92779.03;;;6.94;35.48
77366;BME280;66430;50.182;11.704;2024-02-23T07:14:41;92773.47;;;6.97;35.64
77366;BME280;66430;50.182;11.704;2024-02-23T07:17:07;92769.61;;;7.07;35.41
77366;BME280;66430;50.182;11.704;2024-02-23T07:19:32;92770.42;;;7.04;35.96
77366;BME280;66430;50.182;11.704;2024-02-23T07:21:57;92777.13;;;6.15;36.36
77366;BME280;66430;50.182;11.704;2024-02-23T07:24:23;92795.01;;;7.13;36.06
77366;BME280;66430;50.182;11.704;2024-02-23T07:26:49;92795.65;;;7.03;35.86
77366;BME280;66430;50.182;11.704;2024-02-23T07:29:14;92794.95;;;6.74;35.79
77366;BME280;66430;50.182;11.704;2024-02-23T07:31:40;92794.02;;;7.06;35.80
77366;BME280;66430;50.182;11.704;2024-02-23T07:34:05;92793.69;;;6.70;36.07
77366;BME280;66430;50.182;11.704;2024-02-23T07:36:36;92786.30;;;7.13;35.68
77366;BME280;66430;50.182;11.704;2024-02-23T07:38:57;92791.24;;;7.25;36.20
77366;BME280;66430;50.182;11.704;2024-02-23T07:41:23;92786.37;;;6.98;36.75
77366;BME280;66430;50.182;11.704;2024-02-23T07:43:48;92783.47;;;7.45;36.18
77366;BME280;66430;50.182;11.704;2024-02-23T07:46:13;92774.95;;;7.28;36.31
77366;BME280;66430;50.182;11.704;2024-02-23T07:48:38;92775.11;;;6.99;36.85
77366;BME280;66430;50.182;11.704;2024-02-23T07:51:05;92768.42;;;7.30;36.32
77366;BME280;66430;50.182;11.704;2024-02-23T07:53:30;92768.54;;;7.06;36.66
77366;BME280;66430;50.182;11.704;2024-02-23T07:55:56;92769.54;;;7.32;36.62
77366;BME280;66430;50.182;11.704;2024-02-23T07:58:21;92774.43;;;7.05;37.09
77366;BME280;66430;50.182;11.704;2024-02-23T08:00:46;92771.93;;;6.94;36.76
77366;BME280;66430;50.182;11.704;2024-02-23T08:03:12;92782.36;;;7.26;36.42
77366;BME280;66430;50.182;11.704;2024-02-23T08:05:37;92792.00;;;7.50;36.44
77366;BME280;66430;50.182;11.704;2024-02-23T08:08:03;92793.91;;;7.05;36.69
77366;BME280;66430;50.182;11.704;2024-02-23T08:10:28;92804.39;;;6.97;37.68
77366;BME280;66430;50.182;11.704;2024-02-23T08:12:55;92815.32;;;7.51;36.89
77366;BME280;66430;50.182;11.704;2024-02-23T08:15:20;92826.29;;;7.59;37.39
77366;BME280;66430;50.182;11.704;2024-02-23T08:17:45;92829.24;;;7.54;36.87
77366;BME280;66430;50.182;11.704;2024-02-23T08:20:11;92837.83;;;7.01;37.13
77366;BME280;66430;50.182;11.704;2024-02-23T08:22:36;92834.44;;;7.44;36.18
77366;BME280;66430;50.182;11.704;2024-02-23T08:25:01;92837.96;;;7.39;36.88
77366;BME280;66430;50.182;11.704;2024-02-23T08:27:32;92851.35;;;7.94;36.40
77366;BME280;66430;50.182;11.704;2024-02-23T08:29:53;92850.28;;;7.58;36.68
77366;BME280;66430;50.182;11.704;2024-02-23T08:32:18;92840.00;;;7.62;36.41
77366;BME280;66430;50.182;11.704;2024-02-23T08:34:44;92833.25;;;7.57;36.19
77366;BME280;66430;50.182;11.704;2024-02-23T08:37:09;92831.75;;;7.88;36.28
77366;BME280;66430;50.182;11.704;2024-02-23T08:39:35;92821.43;;;7.79;36.27
77366;BME280;66430;50.182;11.704;2024-02-23T08:42:01;92804.17;;;7.62;37.18
77366;BME280;66430;50.182;11.704;2024-02-23T08:44:26;92806.23;;;7.99;36.64
77366;BME280;66430;50.182;11.704;2024-02-23T08:46:51;92807.34;;;7.99;36.42
77366;BME280;66430;50.182;11.704;2024-02-23T08:49:17;92808.23;;;8.04;35.91
77366;BME280;66430;50.182;11.704;2024-02-23T08:51:42;92806.69;;;7.92;36.14
77366;BME280;66430;50.182;11.704;2024-02-23T08:54:08;92811.64;;;8.13;35.84
77366;BME280;66430;50.182;11.704;2024-02-23T08:56:37;92810.21;;;8.19;36.11
77366;BME280;66430;50.182;11.704;2024-02-23T08:58:59;92811.85;;;7.87;36.31
77366;BME280;66430;50.182;11.704;2024-02-23T09:01:31;92816.95;;;8.09;35.98
77366;BME280;66430;50.182;11.704;2024-02-23T09:03:51;92818.78;;;8.36;35.91
77366;BME280;66430;50.182;11.704;2024-02-23T09:06:16;92821.00;;;8.53;35.63
77366;BME280;66430;50.182;11.704;2024-02-23T09:08:41;92828.29;;;8.12;35.84
77366;BME280;66430;50.182;11.704;2024-02-23T09:11:06;92826.52;;;8.30;35.71
77366;BME280;66430;50.182;11.704;2024-02-23T09:13:31;92826.26;;;8.29;35.99
77366;BME280;66430;50.182;11.704;2024-02-23T09:15:58;92834.71;;;8.20;35.91
77366;BME280;66430;50.182;11.704;2024-02-23T09:18:22;92847.15;;;8.45;36.22
77366;BME280;66430;50.182;11.704;2024-02-23T09:20:48;92852.01;;;8.56;35.88
77366;BME280;66430;50.182;11.704;2024-02-23T09:23:14;92858.15;;;8.36;35.51
77366;BME280;66430;50.182;11.704;2024-02-23T09:25:39;92861.93;;;7.70;36.01
77366;BME280;66430;50.182;11.704;2024-02-23T09:28:05;92870.64;;;8.17;35.42
77366;BME280;66430;50.182;11.704;2024-02-23T09:30:30;92874.08;;;8.01;36.27
77366;BME280;66430;50.182;11.704;2024-02-23T09:32:56;92877.38;;;8.58;35.58
77366;BME280;66430;50.182;11.704;2024-02-23T09:35:23;92878.18;;;8.14;35.21
77366;BME280;66430;50.182;11.704;2024-02-23T09:37:47;92879.14;;;8.06;35.01
77366;BME280;66430;50.182;11.704;2024-02-23T09:40:14;92877.27;;;8.56;35.13
77366;BME280;66430;50.182;11.704;2024-02-23T09:42:38;92875.48;;;8.35;35.62
77366;BME280;66430;50.182;11.704;2024-02-23T09:45:05;92868.66;;;8.48;35.01
77366;BME280;66430;50.182;11.704;2024-02-23T09:47:29;92867.85;;;8.81;34.96
77366;BME280;66430;50.182;11.704;2024-02-23T09:49:56;92881.27;;;8.19;35.54
77366;BME280;66430;50.182;11.704;2024-02-23T09:52:21;92893.90;;;8.53;35.45
77366;BME280;66430;50.182;11.704;2024-02-23T09:54:46;92900.83;;;8.58;35.83
77366;BME280;66430;50.182;11.704;2024-02-23T09:57:11;92897.54;;;7.72;36.66
77366;BME280;66430;50.182;11.704;2024-02-23T09:59:37;92895.39;;;8.39;35.93
77366;BME280;66430;50.182;11.704;2024-02-23T10:02:02;92904.42;;;8.42;36.05
77366;BME280;66430;50.182;11.704;2024-02-23T10:04:28;92899.89;;;8.13;36.37
77366;BME280;66430;50.182;11.704;2024-02-23T10:06:53;92892.01;;;8.09;36.72
77366;BME280;66430;50.182;11.704;2024-02-23T10:09:18;92895.19;;;8.50;36.89
77366;BME280;66430;50.182;11.704;2024-02-23T10:11:44;92894.30;;;8.35;36.23
77366;BME280;66430;50.182;11.704;2024-02-23T10:14:11;92897.51;;;8.64;35.81
77366;BME280;66430;50.182;11.704;2024-02-23T10:16:38;92908.49;;;8.61;35.94
77366;BME280;66430;50.182;11.704;2024-02-23T10:19:01;92913.71;;;9.02;35.74
77366;BME280;66430;50.182;11.704;2024-02-23T10:21:26;92913.96;;;8.65;35.70
77366;BME280;66430;50.182;11.704;2024-02-23T10:23:52;92918.40;;;8.09;36.13
77366;BME280;66430;50.182;11.704;2024-02-23T10:26:17;92921.07;;;8.53;35.98
77366;BME280;66430;50.182;11.704;2024-02-23T10:28:42;92928.02;;;8.92;35.87
77366;BME280;66430;50.182;11.704;2024-02-23T10:31:08;92930.53;;;8.93;35.70
77366;BME280;66430;50.182;11.704;2024-02-23T10:33:36;92931.58;;;8.50;34.83
77366;BME280;66430;50.182;11.704;2024-02-23T10:36:01;92926.92;;;8.12;35.90
77366;BME280;66430;50.182;11.704;2024-02-23T10:38:26;92928.71;;;8.76;34.83
77366;BME280;66430;50.182;11.704;2024-02-23T10:40:50;92928.36;;;8.66;35.21
77366;BME280;66430;50.182;11.704;2024-02-23T10:43:19;92926.27;;;8.03;35.35
77366;BME280;66430;50.182;11.704;2024-02-23T10:45:42;92936.72;;;8.78;35.41
77366;BME280;66430;50.182;11.704;2024-02-23T10:48:08;92936.11;;;8.29;34.86
77366;BME280;66430;50.182;11.704;2024-02-23T10:50:33;92940.51;;;7.07;34.70
77366;BME280;66430;50.182;11.704;2024-02-23T10:52:58;92935.46;;;8.43;34.19
77366;BME280;66430;50.182;11.704;2024-02-23T10:55:25;92934.19;;;7.83;35.04
77366;BME280;66430;50.182;11.704;2024-02-23T10:57:50;92937.89;;;8.26;34.63
77366;BME280;66430;50.182;11.704;2024-02-23T11:00:15;92940.27;;;8.08;35.13
77366;BME280;66430;50.182;11.704;2024-02-23T11:02:45;92945.91;;;7.88;35.11
77366;BME280;66430;50.182;11.704;2024-02-23T11:05:06;92946.18;;;8.38;34.49
77366;BME280;66430;50.182;11.704;2024-02-23T11:07:31;92944.13;;;8.07;34.84
77366;BME280;66430;50.182;11.704;2024-02-23T11:09:59;92948.03;;;8.34;34.69
77366;BME280;66430;50.182;11.704;2024-02-23T11:12:24;92947.76;;;8.44;34.82
77366;BME280;66430;50.182;11.704;2024-02-23T11:14:48;92941.69;;;8.89;35.22
77366;BME280;66430;50.182;11.704;2024-02-23T11:17:18;92952.53;;;8.86;35.31
77366;BME280;66430;50.182;11.704;2024-02-23T11:19:40;92943.71;;;8.32;34.18
77366;BME280;66430;50.182;11.704;2024-02-23T11:22:04;92939.32;;;8.63;33.97
77366;BME280;66430;50.182;11.704;2024-02-23T11:24:30;92938.37;;;8.31;34.28
77366;BME280;66430;50.182;11.704;2024-02-23T11:26:57;92946.57;;;8.66;33.35
77366;BME280;66430;50.182;11.704;2024-02-23T11:29:21;92950.70;;;8.86;33.47
77366;BME280;66430;50.182;11.704;2024-02-23T11:31:47;92948.24;;;9.10;33.60
77366;BME280;66430;50.182;11.704;2024-02-23T11:34:11;92943.13;;;8.18;33.75
77366;BME280;66430;50.182;11.704;2024-02-23T11:36:38;92939.32;;;8.79;33.86
77366;BME280;66430;50.182;11.704;2024-02-23T11:39:02;92939.63;;;8.63;33.58
77366;BME280;66430;50.182;11.704;2024-02-23T11:41:29;92934.71;;;8.26;33.82
77366;BME280;66430;50.182;11.704;2024-02-23T11:43:55;92934.96;;;8.83;33.66
77366;BME280;66430;50.182;11.704;2024-02-23T11:46:19;92934.07;;;8.62;32.85
77366;BME280;66430;50.182;11.704;2024-02-23T11:48:44;92933.87;;;8.86;33.28
77366;BME280;66430;50.182;11.704;2024-02-23T11:51:10;92933.39;;;8.70;33.24
77366;BME280;66430;50.182;11.704;2024-02-23T11:53:36;92928.24;;;8.76;32.62
77366;BME280;66430;50.182;11.704;2024-02-23T11:56:01;92925.64;;;8.64;32.84
77366;BME280;66430;50.182;11.704;2024-02-23T11:58:26;92927.84;;;8.64;33.09
77366;BME280;66430;50.182;11.704;2024-02-23T12:00:52;92931.73;;;9.01;32.77
77366;BME280;66430;50.182;11.704;2024-02-23T12:03:17;92933.86;;;8.89;32.92
77366;BME280;66430;50.182;11.704;2024-02-23T12:05:43;92925.85;;;8.93;32.28
77366;BME280;66430;50.182;11.704;2024-02-23T12:08:08;92922.57;;;8.95;32.39
77366;BME280;66430;50.182;11.704;2024-02-23T12:10:35;92920.33;;;8.53;32.99
77366;BME280;66430;50.182;11.704;2024-02-23T12:13:05;92916.24;;;8.92;32.74
77366;BME280;66430;50.182;11.704;2024-02-23T12:15:25;92919.19;;;8.84;32.58
77366;BME280;66430;50.182;11.704;2024-02-23T12:17:50;92918.28;;;9.10;32.63
77366;BME280;66430;50.182;11.704;2024-02-23T12:20:16;92922.47;;;9.14;32.60
77366;BME280;66430;50.182;11.704;2024-02-23T12:22:41;92925.72;;;9.51;32.64
77366;BME280;66430;50.182;11.704;2024-02-23T12:25:07;92924.38;;;9.08;32.32
77366;BME280;66430;50.182;11.704;2024-02-23T12:27:32;92926.16;;;9.34;32.51
77366;BME280;66430;50.182;11.704;2024-02-23T12:29:58;92926.20;;;9.49;32.25
77366;BME280;66430;50.182;11.704;2024-02-23T12:32:25;92920.93;;;9.01;32.20
77366;BME280;66430;50.182;11.704;2024-02-23T12:34:49;92916.17;;;8.94;32.58
77366;BME280;66430;50.182;11.704;2024-02-23T12:37:15;92911.78;;;9.14;32.90
77366;BME280;66430;50.182;11.704;2024-02-23T12:39:39;92917.47;;;9.65;32.48
77366;BME280;66430;50.182;11.704;2024-02-23T12:42:05;92909.84;;;8.86;32.45
77366;BME280;66430;50.182;11.704;2024-02-23T12:44:30;92909.86;;;9.31;32.07
77366;BME280;66430;50.182;11.704;2024-02-23T12:46:56;92910.14;;;9.00;32.52
77366;BME280;66430;50.182;11.704;2024-02-23T12:49:21;92905.89;;;8.72;32.40